Nearby METAR Reports

 

KSJC - San Jose, California, USA
Distance from station: NE 14km
Updated: 2019-08-24 19:53
Clear
Clear
 Wind from NNW
Wind: NNW 20 km/h
Temperature: 24°C
Dew Point: 17°C
Humidity: 65%
Barometer: 1013.2 hPa
Clouds: Clear
Visibility: 16 km
2019/08/25 00:53 KSJC 250053Z 33011KT 10SM CLR 24/17 A2992 RMK AO2 SLP129 T02440167
KNUQ - Moffett Nas/Mtn, California, USA
Distance from station: N 14km
Updated: 2019-08-24 19:56
Clear
Clear
 Wind from NNW
Wind: NNW 19 km/h
Temperature: 23°C
Dew Point: 16°C
Humidity: 65%
Barometer: 1013.5 hPa
Clouds: Clear
Visibility: 16 km
2019/08/25 00:56 KNUQ 250056Z 33010KT 10SM CLR 23/16 A2993 RMK AO2 SLP137 T02330161
 
KPAO - Palo Alto, California, USA
Distance from station: NNW 23km
Updated: 2019-08-24 16:47
NOT Current
Clear
Clear
 Wind from NNW
Wind: NNW 20 km/h
Temperature: 23°C
Dew Point: 16°C
Humidity: 65%
Barometer: 1013.9 hPa
Clouds: Clear
Visibility: 16 km
2019/08/24 21:47 KPAO 242147Z 33011KT 10SM SKC 23/16 A2994
KRHV - San Jose/Reid, California, USA
Distance from station: ENE 19km
Updated: 2019-08-24 19:47
Clear
Clear
 Wind from NW
Wind: NW 15 km/h
Temperature: 28°C
Heat Index: 28°C
Dew Point: 17°C
Humidity: 51%
Barometer: 1012.9 hPa
Clouds: Clear
Visibility: 16 km
2019/08/25 00:47 KRHV 250047Z 31008KT 10SM SKC 28/17 A2991
 
KOAK - Oakland, California, USA
Distance from station: NNW 50km
Updated: 2019-08-24 19:53
Few Clouds
Few Clouds
 Wind from NW
Wind: NW 17 km/h
Temperature: 21°C
Dew Point: 15°C
Humidity: 69%
Barometer: 1013.9 hPa
Clouds: Few Clouds
Visibility: 16 km
Cloud details: Few Clouds 305 m
2019/08/25 00:53 KOAK 250053Z 31009KT 10SM FEW010 21/15 A2994 RMK AO2 SLP138 T02110150
KSQL - San Carlos Airpo, California, USA
Distance from station: NW 34km
Updated: 2019-08-24 19:47
Clear
Clear
 Wind from NNW
Wind: NNW 19 km/h
Temperature: 22°C
Dew Point: 15°C
Humidity: 65%
Barometer: 1013.5 hPa
Clouds: Clear
Visibility: 16 km
2019/08/25 00:47 KSQL 250047Z 34010KT 10SM SKC 22/15 A2993
 
KSFO - San Francisco, California, USA
Distance from station: NW 49km
Updated: 2019-08-24 19:56
Few Clouds
Few Clouds
 Wind from WNW
Wind: WNW 31 km/h
Temperature: 19°C
Dew Point: 14°C
Humidity: 73%
Barometer: 1013.2 hPa
Clouds: Few Clouds
Visibility: 16 km
Cloud details: Few Clouds 152 m
2019/08/25 00:56 KSFO 250056Z 29017KT 10SM FEW005 19/14 A2992 RMK AO2 SLP131 T01940139
KE16 - San Martin, California, USA
Distance from station: ESE 43km
Updated: 2019-08-05 12:10
NOT Current
Clear
Clear
 Wind from ESE
Wind: ESE 19 km/h
Temperature: 19°C
Dew Point: 14°C
Humidity: 73%
Barometer: 1016.9 hPa
Clouds: Clear
Visibility: 16 km
2019/08/05 17:10 KE16 051710Z AUTO 12010KT 10SM CLR 19/14 A3003 RMK AO2
 
KWVI - Watsonville, California, USA
Distance from station: SSE 44km
Updated: 2019-08-24 19:53
Clear
Clear
 Wind from SW
Wind: SW 15 km/h
Temperature: 19°C
Dew Point: 14°C
Humidity: 73%
Barometer: 1014.6 hPa
Clouds: Clear
Visibility: 16 km
2019/08/25 00:53 KWVI 250053Z AUTO 23008KT 10SM CLR 19/14 A2996 RMK AO2 SLP144 T01940144
KHAF - Half Moon Bay, California, USA
Distance from station: WNW 50km
Updated: 2019-08-24 20:00
Overcast
Overcast
 Wind from WSW
Wind: WSW 7 km/h
Temperature: 16°C
Dew Point: 14°C
Humidity: 88%
Barometer: 1014.9 hPa
Clouds: Overcast
Visibility: 11 km
Cloud details: Overcast 183 m
2019/08/25 01:00 KHAF 250100Z AUTO 25004KT 7SM OVC006 16/14 A2997 RMK AO2
 
KHWD - Hayward, California, USA
Distance from station: N 44km
Updated: 2019-08-24 19:54
Clear
Clear
 Wind from WNW
Wind: WNW 19 km/h
Temperature: 24°C
Dew Point: 15°C
Humidity: 57%
Barometer: 1013.2 hPa
Clouds: Clear
Visibility: 16 km
2019/08/25 00:54 KHWD 250054Z 30010KT 10SM CLR 24/15 A2992 RMK AO2 SLP142 T02390150
KLVK - Livermore, California, USA
Distance from station: NNE 51km
Updated: 2019-08-24 19:53
Clear
Clear
 Wind from WNW
Wind: WNW 24 km/h
Temperature: 30°C
Dew Point: 13°C
Humidity: 35%
Barometer: 1012.2 hPa
Clouds: Clear
Visibility: 16 km
2019/08/25 00:53 KLVK 250053Z 29013KT 10SM CLR 30/13 A2989 RMK AO2 SLP119 T03000133